Time;durP1;ratioP1;P1;durP2;ratioP2;P2;SDS_P1;SDS_P2;PMS_P1;PMS_P2;Temp;Humidity;BMP_temperature;BMP_pressure;BME280_temperature;BME280_humidity;BME280_pressure;Samples;Min_cycle;Max_cycle;Signal;HPM_P1;HPM_P2
2021/08/02 00:01:17;;;;;;;;;;;;;;;20.83;59.62;99832.09;4391247;32;19989;-87
2021/08/02 00:03:49;;;;;;;;;;;;;;;20.95;59.31;99825.19;4388822;32;20332;-87
2021/08/02 00:06:21;;;;;;;;;;;;;;;20.97;59.27;99837.50;4390964;32;19986;-87
2021/08/02 00:09:08;;;;;;;;;;;;;;;20.98;57.68;99825.84;4389674;32;19982;-85
2021/08/02 00:11:38;;;;;;;;;;;;;;;21.01;58.99;99835.50;4391071;32;19996;-87
2021/08/02 00:14:06;;;;;;;;;;;;;;;20.67;60.79;99836.56;4390942;32;20041;-87
2021/08/02 00:16:34;;;;;;;;;;;;;;;20.67;59.63;99847.22;4389712;32;20371;-86
2021/08/02 00:19:02;;;;;;;;;;;;;;;20.88;59.28;99848.69;4390683;32;19974;-87
2021/08/02 00:21:29;;;;;;;;;;;;;;;20.80;60.52;99842.94;4392727;32;19977;-86
2021/08/02 00:23:56;;;;;;;;;;;;;;;20.83;60.12;99846.28;4392267;32;20523;-87
2021/08/02 00:26:23;;;;;;;;;;;;;;;20.87;60.18;99841.63;4394072;32;19989;-84
2021/08/02 00:28:50;;;;;;;;;;;;;;;20.81;57.46;99833.97;4407575;32;20026;-87
2021/08/02 00:31:20;;;;;;;;;;;;;;;20.61;58.98;99849.28;4408130;32;19991;-86
2021/08/02 00:33:47;;;;;;;;;;;;;;;20.74;59.24;99843.28;4394236;32;19977;-87
2021/08/02 00:36:14;;;;;;;;;;;;;;;20.83;57.91;99848.09;4407732;32;20037;-86
2021/08/02 00:39:19;;;;;;;;;;;;;;;20.74;58.61;99846.81;4394227;32;20311;-87
2021/08/02 00:42:04;;;;;;;;;;;;;;;20.76;58.43;99838.69;4384208;32;20025;-86
2021/08/02 00:44:50;;;;;;;;;;;;;;;20.72;58.53;99839.84;4407715;32;20029;-86
2021/08/02 00:47:21;;;;;;;;;;;;;;;20.61;59.37;99862.63;4394199;32;20399;-87
2021/08/02 00:49:55;;;;;;;;;;;;;;;20.04;58.65;99851.53;4407776;32;20064;-86
2021/08/02 00:52:23;;;;;;;;;;;;;;;20.38;59.10;99863.00;4407751;32;20256;-86
2021/08/02 00:54:50;;;;;;;;;;;;;;;20.23;60.46;99864.72;4393824;32;19986;-85
2021/08/02 00:57:19;;;;;;;;;;;;;;;20.13;61.74;99868.84;4407894;32;20016;-87
2021/08/02 00:59:47;;;;;;;;;;;;;;;20.11;61.22;99876.03;4407756;32;20057;-84
2021/08/02 01:02:14;;;;;;;;;;;;;;;20.47;59.48;99869.66;4408011;32;20624;-87
2021/08/02 01:04:43;;;;;;;;;;;;;;;20.46;59.45;99875.94;4407539;32;20037;-86
2021/08/02 01:07:12;;;;;;;;;;;;;;;20.57;58.57;99871.78;4393773;32;20048;-86
2021/08/02 01:09:42;;;;;;;;;;;;;;;20.35;59.28;99876.53;4431125;27;19977;-86
2021/08/02 01:12:11;;;;;;;;;;;;;;;20.39;58.52;99875.44;4407548;32;20035;-86
2021/08/02 01:14:38;;;;;;;;;;;;;;;20.16;60.84;99882.88;4393576;32;20307;-86
2021/08/02 01:17:14;;;;;;;;;;;;;;;20.26;60.98;99888.56;4407769;32;19986;-86
2021/08/02 01:20:10;;;;;;;;;;;;;;;20.25;61.29;99880.66;4407435;32;20369;-86
2021/08/02 01:22:37;;;;;;;;;;;;;;;20.23;60.22;99877.19;4393583;32;20407;-85
2021/08/02 01:25:23;;;;;;;;;;;;;;;20.44;60.00;99881.34;4393780;32;19977;-86
2021/08/02 01:28:10;;;;;;;;;;;;;;;20.16;59.95;99882.88;4407147;32;20454;-86
2021/08/02 01:30:37;;;;;;;;;;;;;;;20.33;59.56;99881.09;4393815;32;19996;-84
2021/08/02 01:33:04;;;;;;;;;;;;;;;20.31;59.46;99886.50;4407243;32;19970;-85
2021/08/02 01:35:42;;;;;;;;;;;;;;;19.83;63.13;99890.00;4407482;32;20045;-86
2021/08/02 01:38:11;;;;;;;;;;;;;;;20.07;60.63;99885.16;4393713;32;20009;-86
2021/08/02 01:40:38;;;;;;;;;;;;;;;20.13;61.16;99887.50;4407502;32;19992;-86
2021/08/02 01:43:06;;;;;;;;;;;;;;;20.03;61.64;99883.59;4407679;32;19984;-86
2021/08/02 01:45:52;;;;;;;;;;;;;;;20.02;60.88;99892.53;4393580;32;20292;-86
2021/08/02 01:48:28;;;;;;;;;;;;;;;20.17;61.03;99899.72;4393255;32;20003;-85
2021/08/02 01:51:01;;;;;;;;;;;;;;;20.16;61.43;99903.34;4407281;32;20028;-86
2021/08/02 01:54:00;;;;;;;;;;;;;;;19.99;62.37;99904.22;4407438;32;19978;-86
2021/08/02 01:56:32;;;;;;;;;;;;;;;20.20;61.52;99905.75;4373412;32;20000;-86
2021/08/02 01:59:21;;;;;;;;;;;;;;;20.18;61.76;99901.47;4393544;32;20048;-86
2021/08/02 02:02:06;;;;;;;;;;;;;;;20.27;60.67;99900.97;4393899;32;19988;-86
2021/08/02 02:04:53;;;;;;;;;;;;;;;20.13;62.56;99912.38;4407994;32;20324;-86
2021/08/02 02:07:22;;;;;;;;;;;;;;;20.24;61.05;99918.94;4393167;32;19989;-86
2021/08/02 02:09:50;;;;;;;;;;;;;;;20.36;61.39;99927.16;4406853;32;20377;-86
2021/08/02 02:12:17;;;;;;;;;;;;;;;20.35;61.12;99933.44;4407063;32;19999;-87
2021/08/02 02:14:45;;;;;;;;;;;;;;;20.50;61.25;99933.53;4406932;32;19993;-88
2021/08/02 02:17:11;;;;;;;;;;;;;;;19.98;63.26;99937.19;4393248;32;19977;-86
2021/08/02 02:19:39;;;;;;;;;;;;;;;20.03;63.19;99936.91;4393421;32;20008;-87
2021/08/02 02:22:24;;;;;;;;;;;;;;;19.89;63.74;99937.66;4395422;32;20045;-86
2021/08/02 02:24:53;;;;;;;;;;;;;;;19.84;64.44;99945.88;4393288;32;20049;-87
2021/08/02 02:27:59;;;;;;;;;;;;;;;20.18;62.29;99945.00;4407153;32;20075;-85
2021/08/02 02:30:26;;;;;;;;;;;;;;;20.34;62.24;99949.50;4393044;32;19994;-86
2021/08/02 02:32:53;;;;;;;;;;;;;;;20.10;63.00;99944.53;4407170;32;19992;-86
2021/08/02 02:35:23;;;;;;;;;;;;;;;20.12;63.20;99942.66;4406979;32;19981;-86
2021/08/02 02:37:50;;;;;;;;;;;;;;;19.96;64.45;99944.38;4406776;32;19997;-86
2021/08/02 02:40:17;;;;;;;;;;;;;;;20.51;62.52;99948.63;4407221;32;19996;-85
2021/08/02 02:42:45;;;;;;;;;;;;;;;20.43;61.79;99952.53;4393046;32;19974;-85
2021/08/02 02:45:12;;;;;;;;;;;;;;;20.50;61.30;99958.44;4392974;32;20010;-86
2021/08/02 02:47:39;;;;;;;;;;;;;;;20.64;60.33;99965.72;4392147;32;19985;-86
2021/08/02 02:50:06;;;;;;;;;;;;;;;20.58;60.66;99968.72;4406709;32;20045;-86
2021/08/02 02:52:35;;;;;;;;;;;;;;;20.63;61.07;99972.00;4407645;32;20635;-86
2021/08/02 02:55:03;;;;;;;;;;;;;;;20.68;60.02;99980.63;4406892;32;20007;-86
2021/08/02 02:57:29;;;;;;;;;;;;;;;20.53;60.19;99984.09;4393353;32;19996;-86
2021/08/02 02:59:57;;;;;;;;;;;;;;;20.57;61.49;99991.03;4406711;32;20045;-86
2021/08/02 03:02:24;;;;;;;;;;;;;;;20.20;63.09;99995.59;4406582;32;20003;-86
2021/08/02 03:05:11;;;;;;;;;;;;;;;20.63;61.06;100006.69;4406758;32;19996;-87
2021/08/02 03:07:49;;;;;;;;;;;;;;;20.62;61.05;100013.00;4376462;32;20006;-86
2021/08/02 03:10:17;;;;;;;;;;;;;;;20.66;61.55;100019.03;4391648;32;19996;-86
2021/08/02 03:12:44;;;;;;;;;;;;;;;20.68;61.00;100017.13;4377574;32;20012;-86
2021/08/02 03:15:12;;;;;;;;;;;;;;;20.74;60.23;100016.81;4391469;32;19998;-85
2021/08/02 03:17:39;;;;;;;;;;;;;;;20.78;60.93;100035.25;4377770;32;20000;-86
2021/08/02 03:20:06;;;;;;;;;;;;;;;20.72;60.81;100030.22;4377968;32;20000;-86
2021/08/02 03:22:39;;;;;;;;;;;;;;;20.81;60.82;100026.19;4377729;32;19997;-86
2021/08/02 03:25:10;;;;;;;;;;;;;;;21.01;59.92;100030.47;4377869;32;19976;-85
2021/08/02 03:28:24;;;;;;;;;;;;;;;21.07;60.25;100038.13;4391898;32;20664;-85
2021/08/02 03:30:48;;;;;;;;;;;;;;;20.93;60.96;100048.72;4386165;32;20057;-85
2021/08/02 03:33:17;;;;;;;;;;;;;;;20.93;59.88;100054.06;4377556;32;19978;-85
2021/08/02 03:35:47;;;;;;;;;;;;;;;20.69;61.97;100048.22;4391328;32;20001;-85
2021/08/02 03:38:18;;;;;;;;;;;;;;;20.31;63.24;100057.25;4391303;32;20033;-85
2021/08/02 03:40:46;;;;;;;;;;;;;;;20.37;61.82;100056.06;4391357;32;19994;-86
2021/08/02 03:43:15;;;;;;;;;;;;;;;20.12;63.58;100062.69;4377502;32;20068;-85
2021/08/02 03:45:55;;;;;;;;;;;;;;;20.20;63.21;100057.78;4391379;32;20453;-86
2021/08/02 03:48:25;;;;;;;;;;;;;;;20.17;63.04;100060.63;4377418;32;20657;-86
2021/08/02 03:50:55;;;;;;;;;;;;;;;20.37;61.10;100064.94;4377771;32;20020;-86
2021/08/02 03:53:22;;;;;;;;;;;;;;;20.62;59.94;100066.38;4377967;32;20372;-86
2021/08/02 03:55:50;;;;;;;;;;;;;;;20.68;61.07;100062.50;4391028;32;19990;-86
2021/08/02 03:58:23;;;;;;;;;;;;;;;20.74;60.68;100063.06;4378105;32;20300;-85
2021/08/02 04:00:53;;;;;;;;;;;;;;;20.57;61.83;100071.09;4379423;32;20005;-86
2021/08/02 04:03:20;;;;;;;;;;;;;;;20.45;62.24;100077.03;4392854;32;20184;-86
2021/08/02 04:05:49;;;;;;;;;;;;;;;20.43;62.53;100083.28;4378868;32;19974;-83
2021/08/02 04:08:18;;;;;;;;;;;;;;;20.38;63.17;100082.69;4382223;32;20009;-86
2021/08/02 04:10:49;;;;;;;;;;;;;;;20.72;62.56;100082.75;4380125;32;20076;-86
2021/08/02 04:13:19;;;;;;;;;;;;;;;21.03;61.24;100081.97;4394304;32;20040;-87
2021/08/02 04:15:48;;;;;;;;;;;;;;;21.67;59.60;100065.06;4381125;32;19974;-86
2021/08/02 04:18:15;;;;;;;;;;;;;;;22.00;57.48;100075.66;4392945;32;20040;-87
2021/08/02 04:20:55;;;;;;;;;;;;;;;22.49;56.64;100071.03;4382719;32;20684;-88
2021/08/02 04:23:34;;;;;;;;;;;;;;;22.82;55.26;100076.16;4382863;32;19974;-88
2021/08/02 04:26:08;;;;;;;;;;;;;;;22.42;56.74;100082.13;4379789;32;19984;-87
2021/08/02 04:29:24;;;;;;;;;;;;;;;22.34;56.05;100092.41;4381564;32;20088;-87
2021/08/02 04:32:09;;;;;;;;;;;;;;;;;;;;;
2021/08/02 04:34:48;;;;;;;;;;;;;;;22.09;57.33;100086.75;4392501;32;20035;-87
2021/08/02 04:37:15;;;;;;;;;;;;;;;22.25;57.29;100078.72;4378795;32;19991;-85
2021/08/02 04:39:57;;;;;;;;;;;;;;;;;;;;;
2021/08/02 04:42:41;;;;;;;;;;;;;;;22.21;57.69;100091.44;4394070;32;19989;-87
2021/08/02 04:45:09;;;;;;;;;;;;;;;22.85;57.23;100084.00;4392851;32;20028;-85
2021/08/02 04:47:36;;;;;;;;;;;;;;;24.11;53.41;100089.38;4392902;32;19992;-88
2021/08/02 04:50:08;;;;;;;;;;;;;;;24.44;52.94;100086.25;4398214;27;20061;-87
2021/08/02 04:52:55;;;;;;;;;;;;;;;24.36;52.38;100097.50;4395412;32;19981;-87
2021/08/02 04:58:38;;;;;;;;;;;;;;;24.45;52.01;100117.53;4414321;26;20035;-87
2021/08/02 05:01:05;;;;;;;;;;;;;;;24.66;50.58;100109.84;4410275;32;19974;-88
2021/08/02 05:03:34;;;;;;;;;;;;;;;24.66;50.47;100110.69;4410255;32;19995;-88
2021/08/02 05:06:10;;;;;;;;;;;;;;;24.24;52.18;100117.12;4395130;32;19977;-88
2021/08/02 05:08:52;;;;;;;;;;;;;;;23.76;54.14;100120.25;4407467;32;20335;-87
2021/08/02 05:11:46;;;;;;;;;;;;;;;24.28;52.46;100115.09;4394749;32;19981;-88
2021/08/02 05:14:21;;;;;;;;;;;;;;;23.70;55.04;100112.59;4408833;32;19985;-88
2021/08/02 05:17:00;;;;;;;;;;;;;;;23.68;54.71;100109.16;4408785;32;20036;-88
2021/08/02 05:19:47;;;;;;;;;;;;;;;23.92;54.31;100108.53;4408757;32;19977;-88
2021/08/02 05:22:14;;;;;;;;;;;;;;;24.12;52.40;100113.44;4397256;32;20001;-81
2021/08/02 05:24:41;;;;;;;;;;;;;;;24.51;52.26;100106.38;4386332;32;20057;-86
2021/08/02 05:27:10;;;;;;;;;;;;;;;24.25;53.02;100110.78;4380519;32;19998;-85
2021/08/02 05:29:37;;;;;;;;;;;;;;;24.12;53.51;100107.19;4369330;32;19988;-82
2021/08/02 05:32:04;;;;;;;;;;;;;;;24.17;51.79;100111.28;4382661;32;20004;-82
2021/08/02 05:37:53;;;;;;;;;;;;;;;24.23;52.98;100129.66;5067706;26;19981;-86
2021/08/02 05:40:25;;;;;;;;;;;;;;;23.98;51.13;100135.81;4404953;32;20019;-81
2021/08/02 05:43:14;;;;;;;;;;;;;;;;;;;;;
2021/08/02 05:46:01;;;;;;;;;;;;;;;23.28;54.64;100135.81;4386708;32;20004;-82
2021/08/02 05:48:45;;;;;;;;;;;;;;;23.50;52.66;100142.50;4392439;32;19982;-86
2021/08/02 05:51:34;;;;;;;;;;;;;;;23.07;53.60;100140.69;4387008;32;20358;-84
2021/08/02 05:54:07;;;;;;;;;;;;;;;23.49;52.67;100130.06;4391487;32;20013;-82
2021/08/02 05:56:34;;;;;;;;;;;;;;;23.80;52.55;100131.66;4394981;32;20016;-81
2021/08/02 05:59:03;;;;;;;;;;;;;;;24.44;50.58;100145.34;4399678;32;20005;-81
2021/08/02 06:01:33;;;;;;;;;;;;;;;25.53;47.09;100149.41;4402918;32;19968;-81
2021/08/02 06:04:00;;;;;;;;;;;;;;;26.48;45.30;100137.00;4389809;32;19990;-85
2021/08/02 06:06:27;;;;;;;;;;;;;;;27.16;45.56;100140.75;4390657;32;20012;-86
2021/08/02 06:08:53;;;;;;;;;;;;;;;28.58;42.87;100143.56;4401794;32;20035;-87
2021/08/02 06:11:20;;;;;;;;;;;;;;;29.19;39.25;100149.13;4400146;32;19973;-85
2021/08/02 06:13:50;;;;;;;;;;;;;;;29.73;38.38;100146.22;4395260;32;19954;-86
2021/08/02 06:16:21;;;;;;;;;;;;;;;30.65;37.55;100151.31;4407889;32;19989;-84
2021/08/02 06:19:03;;;;;;;;;;;;;;;30.98;35.95;100152.75;4392542;32;19989;-82
2021/08/02 06:21:31;;;;;;;;;;;;;;;31.15;33.95;100146.56;4389127;32;19991;-83
2021/08/02 06:23:58;;;;;;;;;;;;;;;31.36;35.60;100149.09;4390312;32;20007;-87
2021/08/02 06:26:25;;;;;;;;;;;;;;;31.16;35.08;100159.13;4405721;32;20425;-85
2021/08/02 06:32:37;;;;;;;;;;;;;;;28.94;36.30;100176.53;4357369;32;19993;-80
2021/08/02 07:22:18;;;;;;;;;;;;;;;;;;;;;
2021/08/02 08:34:47;;;;;;;;;;;;;;;28.41;36.53;100219.75;5393404;26;20817;-85
2021/08/02 08:38:02;;;;;;;;;;;;;;;28.83;34.89;100228.00;5326568;27;20039;-85
2021/08/02 08:44:34;;;;;;;;;;;;;;;29.79;35.14;100222.34;5319789;27;19979;-84
2021/08/02 08:53:53;;;;;;;;;;;;;;;28.94;33.77;100220.69;5306960;27;20091;-81
2021/08/02 08:56:41;;;;;;;;;;;;;;;27.89;35.67;100221.38;5298427;27;20027;-84
2021/08/02 09:13:42;;;;;;;;;;;;;;;29.56;33.97;100191.00;5128343;28;19985;-84
2021/08/02 09:17:10;;;;;;;;;;;;;;;29.81;33.08;100187.00;5130355;28;19981;-84
2021/08/02 09:20:01;;;;;;;;;;;;;;;;;;;;;
2021/08/02 09:32:39;;;;;;;;;;;;;;;30.13;34.04;100186.81;5075108;28;19969;-81
2021/08/02 09:45:28;;;;;;;;;;;;;;;30.21;33.64;100202.38;5157522;27;19955;-85
2021/08/02 10:16:58;;;;;;;;;;;;;;;33.54;27.09;100218.75;5252249;27;19988;-84
2021/08/02 10:23:50;;;;;;;;;;;;;;;32.23;29.33;100223.00;5292905;27;19958;-83
2021/08/02 10:30:24;;;;;;;;;;;;;;;31.00;28.84;100227.56;5295719;27;20044;-81
2021/08/02 10:40:42;;;;;;;;;;;;;;;;;;;;;
2021/08/02 10:43:21;;;;;;;;;;;;;;;33.09;28.38;100231.53;5298356;27;19968;-81
2021/08/02 10:53:04;;;;;;;;;;;;;;;33.82;25.69;100224.81;5140749;27;19983;-82
2021/08/02 10:56:31;;;;;;;;;;;;;;;;;;;;;
2021/08/02 11:03:02;;;;;;;;;;;;;;;34.63;22.88;100220.69;5192438;27;20026;-82
2021/08/02 11:06:17;;;;;;;;;;;;;;;;;;;;;
2021/08/02 11:30:06;;;;;;;;;;;;;;;34.74;25.46;100210.28;5129421;27;20011;-83
2021/08/02 11:33:22;;;;;;;;;;;;;;;34.81;23.31;100219.50;5197693;27;19970;-86
2021/08/02 11:40:04;;;;;;;;;;;;;;;;;;;;;
2021/08/02 11:47:05;;;;;;;;;;;;;;;33.91;24.69;100199.31;5090677;27;20032;-80
2021/08/02 11:50:34;;;;;;;;;;;;;;;34.75;23.01;100203.78;5131044;28;19987;-86
2021/08/02 12:03:36;;;;;;;;;;;;;;;32.25;25.02;100200.09;5194211;27;20012;-81
2021/08/02 12:23:24;;;;;;;;;;;;;;;33.25;26.06;100212.56;5129340;28;20004;-85
2021/08/02 12:29:59;;;;;;;;;;;;;;;;;;;;;
2021/08/02 12:32:56;;;;;;;;;;;;;;;31.94;26.31;100212.28;5212085;27;20404;-83
2021/08/02 12:36:11;;;;;;;;;;;;;;;32.45;25.59;100198.12;5257480;27;19949;-83
2021/08/02 12:39:06;;;;;;;;;;;;;;;30.73;27.49;100194.84;5212871;27;19970;-81
2021/08/02 12:41:50;;;;;;;;;;;;;;;31.60;26.54;100194.72;5251446;27;20032;-80
2021/08/02 12:44:26;;;;;;;;;;;;;;;32.29;25.35;100208.78;5319080;27;19959;-81
2021/08/02 12:47:12;;;;;;;;;;;;;;;32.24;28.23;100209.25;5307690;27;19989;-84
2021/08/02 12:50:09;;;;;;;;;;;;;;;32.88;27.10;100196.44;5245417;27;20158;-81
2021/08/02 12:59:24;;;;;;;;;;;;;;;;;;;;;
2021/08/02 13:02:06;;;;;;;;;;;;;;;32.78;26.26;100182.94;5225056;27;20256;-84
2021/08/02 13:04:45;;;;;;;;;;;;;;;33.21;27.50;100175.81;5260274;27;20351;-84
2021/08/02 13:10:55;;;;;;;;;;;;;;;33.34;27.46;100177.22;5193257;27;20013;-85
2021/08/02 13:16:50;;;;;;;;;;;;;;;32.62;28.07;100180.09;5235042;27;19977;-81
2021/08/02 13:19:22;;;;;;;;;;;;;;;32.91;28.98;100181.66;5237530;27;19965;-85
2021/08/02 13:29:45;;;;;;;;;;;;;;;32.84;29.71;100173.28;5236946;27;19961;-85
2021/08/02 13:32:38;;;;;;;;;;;;;;;33.03;30.28;100177.69;5242499;27;19974;-87
2021/08/02 13:35:23;;;;;;;;;;;;;;;33.10;30.29;100173.34;5292245;27;19985;-85
2021/08/02 13:38:00;;;;;;;;;;;;;;;33.10;28.45;100167.91;5287467;27;19996;-87
2021/08/02 13:40:50;;;;;;;;;;;;;;;33.23;29.71;100167.47;5270527;27;19968;-81
2021/08/02 13:43:58;;;;;;;;;;;;;;;;;;;;;
2021/08/02 13:46:54;;;;;;;;;;;;;;;;;;;;;
2021/08/02 13:49:49;;;;;;;;;;;;;;;;;;;;;
2021/08/02 13:52:31;;;;;;;;;;;;;;;34.09;26.74;100151.03;5395010;26;19959;-84
2021/08/02 13:58:21;;;;;;;;;;;;;;;34.13;26.28;100149.66;5372715;26;20316;-84
2021/08/02 14:01:57;;;;;;;;;;;;;;;34.55;26.45;100148.72;5368757;26;19967;-81
2021/08/02 14:04:55;;;;;;;;;;;;;;;;;;;;;
2021/08/02 14:07:51;;;;;;;;;;;;;;;34.78;26.81;100137.12;5355869;26;19997;-85
2021/08/02 14:10:34;;;;;;;;;;;;;;;34.48;26.15;100131.31;5376322;26;20207;-81
2021/08/02 14:13:19;;;;;;;;;;;;;;;34.64;25.59;100135.06;5387048;26;19979;-84
2021/08/02 14:16:19;;;;;;;;;;;;;;;34.49;27.25;100135.72;5384969;26;19960;-81
2021/08/02 14:19:18;;;;;;;;;;;;;;;34.77;25.30;100144.44;5384970;26;19971;-81
2021/08/02 14:22:41;;;;;;;;;;;;;;;35.05;26.02;100138.63;5386339;26;20027;-86
2021/08/02 14:26:10;;;;;;;;;;;;;;;34.84;24.38;100141.87;5373279;26;19967;-86
2021/08/02 14:32:50;;;;;;;;;;;;;;;34.09;26.95;100134.69;5308123;27;19945;-81
2021/08/02 14:43:08;;;;;;;;;;;;;;;32.52;27.42;100130.38;5234987;27;19972;-81
2021/08/02 14:45:46;;;;;;;;;;;;;;;32.34;27.01;100124.91;5244144;27;19971;-80
2021/08/02 14:52:28;;;;;;;;;;;;;;;31.14;28.16;100119.56;5365823;26;20380;-81
2021/08/02 15:38:13;;;;;;;;;;;;;;;30.48;30.63;100123.09;5298667;26;20024;-83
2021/08/02 15:45:02;;;;;;;;;;;;;;;30.72;30.29;100128.06;5230288;27;20041;-84
2021/08/02 15:51:51;;;;;;;;;;;;;;;30.50;30.21;100123.78;5188133;27;20399;-86
2021/08/02 15:58:28;;;;;;;;;;;;;;;30.86;28.94;100116.78;5195982;27;19996;-84
2021/08/02 16:01:44;;;;;;;;;;;;;;;31.00;28.33;100104.59;5125132;28;20639;-83
2021/08/02 16:04:47;;;;;;;;;;;;;;;;;;;;;
2021/08/02 16:25:39;;;;;;;;;;;;;;;;;;;;;
2021/08/02 22:13:21;;;;;;;;;;;;;;;;;;;;;
2021/08/02 23:03:06;;;;;;;;;;;;;;;;;;;;;
2021/08/02 23:06:07;;;;;;;;;;;;;;;22.13;52.17;100300.53;5216518;27;19975;-83
2021/08/02 23:09:55;;;;;;;;;;;;;;;;;;;;;
2021/08/02 23:12:37;;;;;;;;;;;;;;;21.99;53.35;100297.75;5084052;27;20498;-83
2021/08/02 23:18:49;;;;;;;;;;;;;;;;;;;;;
2021/08/02 23:22:19;;;;;;;;;;;;;;;;;;;;;
2021/08/02 23:25:49;;;;;;;;;;;;;;;;;;;;;
2021/08/02 23:29:34;;;;;;;;;;;;;;;;;;;;;
2021/08/02 23:39:17;;;;;;;;;;;;;;;;;;;;;
2021/08/02 23:56:18;;;;;;;;;;;;;;;21.45;53.63;100308.66;5168098;27;19980;-84
2021/08/02 23:58:55;;;;;;;;;;;;;;;;;;5206023;27;20151;-84
